Time;durP1;ratioP1;P1;durP2;ratioP2;P2;SDS_P1;SDS_P2;PMS_P1;PMS_P2;Temp;Humidity;BMP_temperature;BMP_pressure;BME280_temperature;BME280_humidity;BME280_pressure;Samples;Min_cycle;Max_cycle;Signal;HPM_P1;HPM_P2
2021/03/14 00:00:50;;;;;;;6.43;4.40;;;1.60;99.90;0.30;95624.00;;;;5076508;28;20488;-69
2021/03/14 00:03:38;;;;;;;5.17;3.67;;;1.60;99.90;0.10;95623.00;;;;5080372;28;20442;-69
2021/03/14 00:06:26;;;;;;;6.93;4.73;;;1.50;99.90;0.30;95611.00;;;;5084659;28;20453;-69
2021/03/14 00:09:14;;;;;;;4.23;3.53;;;1.50;99.90;0.40;95617.00;;;;5066261;28;20433;-68
2021/03/14 00:12:05;;;;;;;6.40;3.70;;;1.50;99.90;0.10;95617.00;;;;5068678;28;20437;-69
2021/03/14 00:14:53;;;;;;;4.23;3.37;;;1.50;99.90;0.00;95624.00;;;;5084267;28;20452;-68
2021/03/14 00:17:41;;;;;;;4.77;3.80;;;1.50;99.90;0.10;95625.00;;;;5076150;28;20480;-69
2021/03/14 00:20:29;;;;;;;6.10;3.47;;;1.40;99.90;0.20;95635.00;;;;5081653;28;20446;-68
2021/03/14 00:23:17;;;;;;;5.07;4.03;;;1.30;99.90;0.10;95622.00;;;;5072399;28;20453;-69
2021/03/14 00:26:05;;;;;;;7.63;4.67;;;1.40;99.90;0.10;95624.00;;;;5069366;28;20437;-69
2021/03/14 00:28:54;;;;;;;8.17;4.10;;;1.30;99.90;0.20;95624.00;;;;5081184;28;20462;-69
2021/03/14 00:31:42;;;;;;;5.87;3.90;;;1.30;99.90;0.20;95625.00;;;;5086273;28;20968;-68
2021/03/14 00:34:30;;;;;;;4.57;3.70;;;1.40;99.90;0.00;95620.00;;;;5084044;28;20478;-69
2021/03/14 00:37:17;;;;;;;4.50;3.80;;;1.30;99.90;-0.40;95608.00;;;;5081645;28;20460;-68
2021/03/14 00:40:07;;;;;;;5.50;3.67;;;1.20;99.90;-0.50;95616.00;;;;5084608;28;20800;-69
2021/03/14 00:42:59;;;;;;;8.33;4.60;;;1.10;99.90;-0.70;95618.00;;;;5079209;28;21248;-69
2021/03/14 00:45:49;;;;;;;4.57;3.53;;;0.90;99.90;-0.60;95616.00;;;;5076042;28;20504;-69
2021/03/14 00:48:49;;;;;;;7.33;4.30;;;0.80;99.90;-0.50;95625.00;;;;5078171;28;21053;-69
2021/03/14 00:51:37;;;;;;;6.97;4.37;;;0.70;99.90;-0.30;95634.00;;;;5067679;28;20434;-69
2021/03/14 00:54:25;;;;;;;5.53;4.73;;;0.80;99.90;-0.20;95634.00;;;;5082223;28;20444;-69
2021/03/14 00:57:12;;;;;;;7.67;4.40;;;0.90;99.90;-0.30;95638.00;;;;5072254;28;20465;-69
2021/03/14 01:00:00;;;;;;;7.20;4.33;;;0.90;99.90;-0.30;95642.00;;;;5067324;28;20445;-69
2021/03/14 01:02:49;;;;;;;5.37;4.50;;;0.90;99.90;-0.60;95634.00;;;;5066544;28;20929;-69
2021/03/14 01:05:37;;;;;;;4.13;3.73;;;0.90;99.90;-0.60;95649.00;;;;5065836;28;20439;-69
2021/03/14 01:08:25;;;;;;;3.73;3.17;;;0.70;99.90;-0.90;95638.00;;;;5066496;28;20475;-69
2021/03/14 01:11:13;;;;;;;5.13;4.17;;;0.70;99.90;-0.70;95630.00;;;;5072373;28;20484;-69
2021/03/14 01:14:00;;;;;;;7.67;4.70;;;0.60;99.90;-0.40;95637.00;;;;5067475;28;20980;-69
2021/03/14 01:16:48;;;;;;;8.07;4.40;;;0.70;99.90;-0.40;95632.00;;;;5075651;28;20466;-69
2021/03/14 01:19:37;;;;;;;5.47;4.03;;;0.80;99.90;-0.50;95647.00;;;;5104770;28;20513;-69
2021/03/14 01:22:25;;;;;;;4.60;4.00;;;0.80;99.90;-0.50;95643.00;;;;5096438;28;20959;-68
2021/03/14 01:25:15;;;;;;;8.87;5.07;;;0.70;99.90;-0.40;95629.00;;;;5089290;28;20437;-69
2021/03/14 01:28:04;;;;;;;5.90;4.00;;;0.80;99.90;-0.20;95640.00;;;;5084958;28;20480;-68
2021/03/14 01:30:51;;;;;;;6.87;3.90;;;0.90;99.90;0.00;95635.00;;;;5084378;28;20440;-69
2021/03/14 01:33:39;;;;;;;6.17;4.53;;;0.90;99.90;-0.20;95634.00;;;;5086670;28;20445;-69
2021/03/14 01:36:28;;;;;;;5.10;4.60;;;1.00;99.90;-0.10;95624.00;;;;5085620;28;20468;-68
2021/03/14 01:39:16;;;;;;;5.17;4.67;;;1.00;99.90;-0.20;95613.00;;;;5085785;28;20430;-68
2021/03/14 01:42:05;;;;;;;5.87;3.93;;;1.10;99.90;-0.10;95607.00;;;;5065976;28;20431;-68
2021/03/14 01:44:54;;;;;;;6.50;4.23;;;1.00;99.90;0.00;95602.00;;;;5099404;28;20790;-69
2021/03/14 01:47:45;;;;;;;3.73;3.17;;;1.10;99.90;0.30;95597.00;;;;5096177;28;20981;-69
2021/03/14 01:50:37;;;;;;;5.67;4.13;;;1.00;99.90;0.20;95583.00;;;;5086080;28;20425;-69
2021/03/14 01:53:26;;;;;;;6.63;4.43;;;1.30;99.90;0.30;95574.00;;;;5065808;28;20818;-69
2021/03/14 01:56:14;;;;;;;4.37;3.87;;;1.30;99.90;0.50;95584.00;;;;5064786;28;20460;-69
2021/03/14 01:59:03;;;;;;;5.07;4.27;;;1.40;99.90;0.20;95596.00;;;;5087040;28;20440;-68
2021/03/14 02:01:52;;;;;;;4.63;3.70;;;1.40;99.90;0.10;95590.00;;;;5083790;28;20463;-69
2021/03/14 02:04:40;;;;;;;3.77;3.47;;;1.40;99.90;0.10;95580.00;;;;5080417;28;20443;-68
2021/03/14 02:07:28;;;;;;;4.93;4.10;;;1.40;99.90;0.40;95592.00;;;;5070251;28;20465;-68
2021/03/14 02:10:21;;;;;;;4.33;3.80;;;1.40;99.90;0.40;95587.00;;;;5082385;28;20444;-69
2021/03/14 02:13:15;;;;;;;7.33;4.03;;;1.50;99.90;0.60;95588.00;;;;5075862;28;20426;-70
2021/03/14 02:16:08;;;;;;;6.63;4.27;;;1.50;99.90;0.80;95579.00;;;;5084466;28;20450;-70
2021/03/14 02:19:00;;;;;;;5.10;4.03;;;1.60;99.90;0.80;95569.00;;;;5083077;28;20487;-70
2021/03/14 02:21:48;;;;;;;7.27;3.77;;;1.80;99.90;0.80;95569.00;;;;5077915;28;20431;-69
2021/03/14 02:24:45;;;;;;;5.03;3.57;;;1.80;99.90;1.00;95569.00;;;;5065202;28;20431;-69
2021/03/14 02:27:35;;;;;;;4.20;3.33;;;1.90;99.90;1.10;95566.00;;;;5072571;28;20988;-69
2021/03/14 02:30:23;;;;;;;5.63;3.67;;;2.00;99.90;1.20;95567.00;;;;5074964;28;20453;-69
2021/03/14 02:33:13;;;;;;;5.23;3.63;;;2.10;99.90;1.30;95578.00;;;;5080127;28;20434;-69
2021/03/14 02:36:05;;;;;;;4.20;3.80;;;2.20;99.90;1.40;95583.00;;;;5066184;28;20449;-69
2021/03/14 02:38:53;;;;;;;6.83;4.23;;;2.30;99.90;1.50;95592.00;;;;5064156;28;20967;-69
2021/03/14 02:41:42;;;;;;;4.77;3.23;;;2.40;99.90;1.60;95589.00;;;;5064166;28;21483;-69
2021/03/14 02:44:36;;;;;;;4.77;3.73;;;2.50;99.90;1.60;95589.00;;;;5084345;28;20819;-69
2021/03/14 02:47:25;;;;;;;6.87;3.97;;;2.60;99.90;1.80;95581.00;;;;5083724;28;20819;-69
2021/03/14 02:50:23;;;;;;;4.70;4.20;;;2.60;99.90;1.60;95574.00;;;;5065251;28;20439;-69
2021/03/14 02:53:11;;;;;;;5.07;3.83;;;2.70;99.90;1.50;95568.00;;;;5065638;28;20431;-69
2021/03/14 02:55:59;;;;;;;5.47;3.97;;;2.70;99.90;1.40;95584.00;;;;5064821;28;20434;-68
2021/03/14 02:58:48;;;;;;;7.90;4.73;;;2.60;99.90;1.40;95583.00;;;;5075765;28;20784;-69
2021/03/14 03:01:37;;;;;;;5.10;3.67;;;2.60;99.90;1.50;95574.00;;;;5081699;28;20940;-69
2021/03/14 03:04:26;;;;;;;6.37;3.93;;;2.60;99.90;1.60;95566.00;;;;5064280;28;20426;-69
2021/03/14 03:07:16;;;;;;;7.87;4.00;;;2.60;99.90;1.70;95583.00;;;;5067713;28;20461;-69
2021/03/14 03:10:06;;;;;;;4.70;3.87;;;2.60;99.90;1.80;95581.00;;;;5080429;28;20429;-69
2021/03/14 03:12:59;;;;;;;7.73;3.93;;;2.70;99.90;1.90;95603.00;;;;5067012;28;20418;-69
2021/03/14 03:15:48;;;;;;;7.07;3.77;;;2.80;99.90;2.00;95605.00;;;;5080559;28;20432;-69
2021/03/14 03:18:37;;;;;;;5.47;4.87;;;2.90;99.90;2.10;95614.00;;;;5062685;28;20441;-69
2021/03/14 03:21:26;;;;;;;5.83;4.10;;;3.00;99.90;2.10;95606.00;;;;5064424;28;20443;-69
2021/03/14 03:24:14;;;;;;;6.40;3.83;;;3.00;99.90;2.20;95619.00;;;;5064402;28;20446;-70
2021/03/14 03:27:03;;;;;;;11.33;5.00;;;3.10;99.90;2.20;95629.00;;;;5083347;28;20460;-69
2021/03/14 03:29:52;;;;;;;5.33;4.30;;;3.20;99.90;2.20;95632.00;;;;5066237;28;20806;-69
2021/03/14 03:32:41;;;;;;;6.93;4.43;;;3.20;99.90;2.20;95631.00;;;;5075755;28;20456;-69
2021/03/14 03:35:30;;;;;;;5.20;4.43;;;3.30;99.90;2.30;95645.00;;;;5077003;28;20427;-68
2021/03/14 03:38:18;;;;;;;6.60;4.73;;;3.30;99.90;2.10;95660.00;;;;5079488;28;20450;-69
2021/03/14 03:41:06;;;;;;;6.37;4.80;;;3.30;99.90;2.10;95663.00;;;;5068395;28;20442;-69
2021/03/14 03:43:56;;;;;;;13.63;5.93;;;3.30;99.90;2.20;95666.00;;;;5082455;28;20441;-70
2021/03/14 03:46:47;;;;;;;11.50;5.67;;;3.30;99.90;2.10;95673.00;;;;5083833;28;20452;-70
2021/03/14 03:49:38;;;;;;;7.57;5.33;;;3.30;99.90;2.20;95684.00;;;;5069683;28;20523;-69
2021/03/14 03:52:27;;;;;;;6.23;4.47;;;3.30;99.90;2.20;95683.00;;;;5068849;28;20434;-70
2021/03/14 03:55:17;;;;;;;7.70;4.63;;;3.30;99.90;2.30;95687.00;;;;5068357;28;20437;-70
2021/03/14 03:58:05;;;;;;;8.27;5.73;;;3.30;99.90;2.30;95700.00;;;;5072794;28;20453;-70
2021/03/14 04:00:55;;;;;;;5.93;5.03;;;3.30;99.90;2.10;95680.00;;;;5070666;28;20453;-71
2021/03/14 04:03:46;;;;;;;5.60;4.47;;;3.30;99.90;2.30;95682.00;;;;5086968;28;20434;-71
2021/03/14 04:06:34;;;;;;;8.93;5.53;;;3.30;99.90;2.40;95668.00;;;;5081357;28;20457;-71
2021/03/14 04:09:24;;;;;;;18.70;8.43;;;3.30;99.90;2.40;95670.00;;;;5079348;28;20499;-71
2021/03/14 04:12:12;;;;;;;20.87;13.40;;;3.40;99.90;2.50;95695.00;;;;5078629;28;20435;-71
2021/03/14 04:15:01;;;;;;;3.73;3.40;;;3.50;99.90;2.70;95691.00;;;;5084118;28;20429;-72
2021/03/14 04:17:51;;;;;;;6.90;4.77;;;3.50;99.90;2.30;95699.00;;;;5086572;28;20988;-72
2021/03/14 04:20:41;;;;;;;6.03;5.03;;;3.60;99.90;2.20;95695.00;;;;5087198;28;20441;-72
2021/03/14 04:23:32;;;;;;;7.10;5.27;;;3.50;99.90;2.20;95689.00;;;;5087877;28;20453;-72
2021/03/14 04:26:23;;;;;;;7.87;4.60;;;3.40;99.90;2.30;95696.00;;;;5087141;28;20428;-72
2021/03/14 04:29:13;;;;;;;4.70;4.10;;;3.40;99.90;2.20;95692.00;;;;5066504;28;20503;-72
2021/03/14 04:32:02;;;;;;;9.37;4.63;;;3.40;99.90;2.30;95704.00;;;;5066609;28;20975;-72
2021/03/14 04:34:52;;;;;;;3.93;2.63;;;3.40;99.90;2.30;95703.00;;;;5080168;28;20854;-73
2021/03/14 04:37:41;;;;;;;5.57;2.43;;;3.40;99.90;2.30;95695.00;;;;5089940;28;20445;-72
2021/03/14 04:40:29;;;;;;;2.47;2.13;;;3.40;99.90;2.30;95681.00;;;;5077632;28;20438;-73
2021/03/14 04:43:18;;;;;;;8.30;3.30;;;3.40;99.90;2.20;95679.00;;;;5086993;28;20433;-73
2021/03/14 04:46:06;;;;;;;4.10;2.77;;;3.40;99.90;2.20;95681.00;;;;5086950;28;20803;-72
2021/03/14 04:48:55;;;;;;;5.20;1.90;;;3.40;99.90;2.30;95669.00;;;;5066695;28;21001;-72
2021/03/14 04:51:52;;;;;;;4.20;1.83;;;3.40;99.90;2.40;95668.00;;;;5067061;28;21153;-72
2021/03/14 04:54:41;;;;;;;3.47;1.73;;;3.40;99.90;2.50;95659.00;;;;5066242;28;20430;-72
2021/03/14 04:57:30;;;;;;;1.67;1.57;;;3.50;99.90;2.40;95664.00;;;;5067377;28;20462;-72
2021/03/14 05:00:21;;;;;;;2.97;1.73;;;3.50;99.90;2.50;95647.00;;;;5084031;28;20434;-72
2021/03/14 05:03:12;;;;;;;4.07;1.87;;;3.50;99.90;2.60;95651.00;;;;5081897;28;20811;-72
2021/03/14 05:06:01;;;;;;;1.73;1.57;;;3.60;99.90;2.60;95633.00;;;;5080229;28;20480;-72
2021/03/14 05:08:50;;;;;;;3.67;1.77;;;3.60;99.90;2.60;95641.00;;;;5083074;28;20469;-72
2021/03/14 05:11:38;;;;;;;1.53;1.40;;;3.60;99.90;2.70;95622.00;;;;5085027;28;20440;-71
2021/03/14 05:14:27;;;;;;;1.57;1.43;;;3.70;99.90;2.70;95638.00;;;;5074881;28;20425;-73
2021/03/14 05:17:17;;;;;;;1.80;1.30;;;3.70;99.90;2.70;95639.00;;;;5068706;28;20466;-72
2021/03/14 05:20:09;;;;;;;2.33;1.63;;;3.80;99.90;2.80;95640.00;;;;5065461;28;20423;-73
2021/03/14 05:22:58;;;;;;;4.47;1.97;;;3.80;99.90;2.70;95648.00;;;;5067056;28;20435;-73
2021/03/14 05:25:46;;;;;;;2.60;1.10;;;3.80;99.90;2.80;95650.00;;;;5068172;28;20431;-73
2021/03/14 05:28:34;;;;;;;2.57;1.97;;;3.80;99.90;2.80;95647.00;;;;5067262;28;20478;-73
2021/03/14 05:31:31;;;;;;;2.47;1.67;;;3.80;99.90;2.80;95644.00;;;;5064247;28;20442;-72
2021/03/14 05:34:20;;;;;;;3.07;1.30;;;3.80;99.90;2.80;95645.00;;;;5084003;28;20445;-72
2021/03/14 05:37:08;;;;;;;1.83;1.27;;;3.80;99.90;2.80;95655.00;;;;5079476;28;20453;-73
2021/03/14 05:39:55;;;;;;;1.37;1.27;;;3.80;99.90;2.80;95654.00;;;;5079925;28;20430;-73
2021/03/14 05:42:44;;;;;;;2.77;1.40;;;3.90;99.90;2.80;95654.00;;;;5068400;28;20463;-72
2021/03/14 05:45:32;;;;;;;2.30;2.07;;;3.90;99.90;2.80;95648.00;;;;5066604;28;20434;-72
2021/03/14 05:48:20;;;;;;;2.43;1.90;;;3.90;99.90;2.70;95650.00;;;;5079314;28;20478;-72
2021/03/14 05:51:09;;;;;;;2.93;2.03;;;3.90;99.90;2.70;95661.00;;;;5065334;28;20430;-73
2021/03/14 05:53:59;;;;;;;2.97;2.77;;;3.80;99.90;2.70;95666.00;;;;5065423;28;20964;-72
2021/03/14 05:56:49;;;;;;;1.90;1.70;;;3.80;99.90;2.70;95665.00;;;;5063819;28;20973;-72
2021/03/14 05:59:38;;;;;;;2.40;2.20;;;3.80;99.90;2.70;95669.00;;;;5085802;28;20453;-72
2021/03/14 06:02:27;;;;;;;1.60;1.50;;;3.80;99.90;2.70;95664.00;;;;5079734;28;20434;-73
2021/03/14 06:05:15;;;;;;;2.63;2.13;;;3.80;99.90;2.70;95667.00;;;;5065060;28;20480;-73
2021/03/14 06:08:05;;;;;;;1.97;1.77;;;3.80;99.90;2.70;95666.00;;;;5064143;28;20860;-73
2021/03/14 06:10:52;;;;;;;3.17;1.97;;;3.80;99.90;2.80;95669.00;;;;5065485;28;20442;-72
2021/03/14 06:13:41;;;;;;;2.77;1.80;;;3.80;99.90;2.60;95667.00;;;;5065877;28;20437;-73
2021/03/14 06:16:29;;;;;;;2.57;2.37;;;3.80;99.90;2.60;95663.00;;;;5064551;28;20450;-73
2021/03/14 06:19:18;;;;;;;2.00;1.80;;;3.70;99.90;2.50;95663.00;;;;5064776;28;20937;-73
2021/03/14 06:22:21;;;;;;;3.00;2.10;;;3.70;99.90;2.50;95675.00;;;;5065435;28;20468;-72
2021/03/14 06:25:26;;;;;;;2.43;2.23;;;3.70;99.90;2.50;95680.00;;;;5077253;28;21032;-72
2021/03/14 06:28:16;;;;;;;2.07;1.87;;;3.70;99.90;2.50;95685.00;;;;5066140;28;20497;-73
2021/03/14 06:31:25;;;;;;;1.97;1.77;;;3.60;99.90;2.50;95676.00;;;;5070773;28;20441;-72
2021/03/14 06:34:29;;;;;;;2.83;1.70;;;3.60;99.90;2.50;95686.00;;;;5078936;28;20449;-72
2021/03/14 06:37:18;;;;;;;2.80;2.10;;;3.60;99.90;2.60;95691.00;;;;5081554;28;20999;-72
2021/03/14 06:40:15;;;;;;;2.87;1.77;;;3.60;99.90;2.60;95703.00;;;;5067220;28;20961;-73
2021/03/14 06:43:12;;;;;;;2.80;2.10;;;3.60;99.90;2.60;95702.00;;;;5064424;28;20437;-73
2021/03/14 06:46:00;;;;;;;1.87;1.70;;;4.40;99.90;2.70;95708.00;;;;5065206;28;20435;-73
2021/03/14 06:49:04;;;;;;;2.10;1.90;;;3.70;99.90;2.70;95714.00;;;;5064418;28;20473;-72
2021/03/14 06:51:54;;;;;;;1.60;1.50;;;3.70;99.90;2.70;95714.00;;;;5065607;28;20433;-73
2021/03/14 06:54:45;;;;;;;3.70;1.77;;;3.70;99.90;2.80;95720.00;;;;5066242;28;20430;-73
2021/03/14 06:57:33;;;;;;;2.10;1.80;;;3.80;99.90;2.70;95729.00;;;;5068047;28;20464;-73
2021/03/14 07:00:21;;;;;;;1.73;1.27;;;3.80;99.90;2.80;95726.00;;;;5079563;28;20452;-72
2021/03/14 07:03:24;;;;;;;1.70;1.53;;;3.80;99.90;2.80;95729.00;;;;5076714;28;20445;-72
2021/03/14 07:06:18;;;;;;;2.60;1.40;;;3.80;99.90;2.80;95732.00;;;;5104201;28;20443;-72
2021/03/14 07:09:11;;;;;;;1.73;1.63;;;3.80;99.90;2.80;95738.00;;;;5082398;28;20488;-72
2021/03/14 07:11:59;;;;;;;2.13;1.93;;;3.80;99.90;2.80;95742.00;;;;5086288;28;20428;-72
2021/03/14 07:14:49;;;;;;;3.20;2.20;;;3.80;99.90;2.70;95747.00;;;;5084215;28;20448;-71
2021/03/14 07:17:37;;;;;;;2.77;2.43;;;3.30;99.90;2.70;95754.00;;;;5074374;28;20832;-73
2021/03/14 07:20:28;;;;;;;2.80;2.33;;;3.80;99.90;2.70;95760.00;;;;5082014;28;20418;-73
2021/03/14 07:23:17;;;;;;;2.10;1.90;;;3.80;99.90;2.70;95745.00;;;;5081434;28;20438;-73
2021/03/14 07:26:05;;;;;;;3.17;1.90;;;3.80;99.90;2.80;95761.00;;;;5083237;28;20456;-73
2021/03/14 07:28:53;;;;;;;3.50;2.83;;;3.80;99.90;2.80;95775.00;;;;5084710;28;20461;-73
2021/03/14 07:31:42;;;;;;;2.13;2.03;;;3.80;99.90;2.90;95775.00;;;;5070167;28;20429;-73
2021/03/14 07:34:32;;;;;;;3.13;1.93;;;3.90;99.90;2.90;95781.00;;;;5079293;28;20949;-71
2021/03/14 07:37:24;;;;;;;2.27;2.03;;;3.90;99.90;2.90;95788.00;;;;5081180;28;20453;-73
2021/03/14 07:40:15;;;;;;;2.03;1.83;;;3.90;99.90;2.90;95773.00;;;;5084444;28;20448;-73
2021/03/14 07:43:04;;;;;;;3.97;2.33;;;3.90;99.90;3.00;95773.00;;;;5070815;28;20434;-73
2021/03/14 07:45:52;;;;;;;3.40;2.37;;;4.00;99.90;2.90;95769.00;;;;5080002;28;20464;-72
2021/03/14 07:48:42;;;;;;;2.60;2.40;;;4.00;99.90;2.90;95775.00;;;;5080495;28;20511;-72
2021/03/14 07:51:32;;;;;;;3.43;2.20;;;4.00;99.90;2.90;95768.00;;;;5080106;28;20426;-72
2021/03/14 07:54:27;;;;;;;2.60;2.40;;;4.00;99.90;3.00;95769.00;;;;5085525;28;20445;-72
2021/03/14 07:57:22;;;;;;;1.40;1.27;;;4.00;99.90;2.90;95765.00;;;;5066987;28;20450;-72
2021/03/14 08:00:32;;;;;;;1.30;1.13;;;4.00;99.90;3.00;95756.00;;;;5068010;28;20945;-72
2021/03/14 08:03:37;;;;;;;1.73;1.40;;;4.00;99.90;3.00;95764.00;;;;5095488;28;20420;-72
2021/03/14 08:06:52;;;;;;;2.20;1.43;;;4.00;99.90;3.10;95776.00;;;;5083685;28;20460;-73
2021/03/14 08:09:49;;;;;;;1.23;1.13;;;4.10;99.90;3.00;95771.00;;;;5081868;28;20488;-72
2021/03/14 08:12:39;;;;;;;1.00;1.00;;;4.10;99.90;2.90;95778.00;;;;5080730;28;20816;-72
2021/03/14 08:15:29;;;;;;;0.80;0.80;;;4.00;99.90;2.90;95775.00;;;;5088124;28;20426;-72
2021/03/14 08:18:36;;;;;;;1.00;0.93;;;4.00;99.90;3.00;95774.00;;;;5087350;28;20530;-72
2021/03/14 08:21:41;;;;;;;6.60;3.57;;;4.00;99.90;3.00;95773.00;;;;5085374;28;20442;-72
2021/03/14 08:24:33;;;;;;;2.20;2.00;;;4.00;99.90;3.00;95790.00;;;;5087287;28;20465;-72
2021/03/14 08:27:31;;;;;;;7.57;3.87;;;4.00;99.90;3.00;95786.00;;;;5078252;28;20474;-73
2021/03/14 08:30:50;;;;;;;52.73;22.23;;;4.00;99.90;2.80;95773.00;;;;5100424;28;20912;-73
2021/03/14 08:33:44;;;;;;;53.73;22.77;;;4.00;99.90;2.90;95766.00;;;;5095548;28;20459;-73
2021/03/14 08:36:35;;;;;;;35.37;15.30;;;4.00;99.90;2.90;95768.00;;;;5104401;28;20441;-72
2021/03/14 08:39:25;;;;;;;27.23;13.53;;;4.00;99.90;3.00;95773.00;;;;5093931;28;20426;-73
2021/03/14 08:42:14;;;;;;;12.10;7.57;;;4.00;99.90;3.10;95774.00;;;;5095424;28;20445;-72
2021/03/14 08:45:20;;;;;;;4.80;2.90;;;4.00;99.90;3.10;95765.00;;;;5105666;28;20425;-71
2021/03/14 08:48:09;;;;;;;2.27;1.97;;;4.10;99.90;3.10;95768.00;;;;5097063;28;20476;-71
2021/03/14 08:50:57;;;;;;;3.93;2.57;;;4.10;99.90;3.10;95764.00;;;;5102544;28;20480;-71
2021/03/14 08:53:45;;;;;;;3.80;3.00;;;4.20;99.90;3.10;95760.00;;;;5105967;28;20832;-72
2021/03/14 08:56:34;;;;;;;3.77;2.77;;;4.20;99.90;3.10;95758.00;;;;5096617;28;20469;-72
2021/03/14 08:59:24;;;;;;;4.47;2.70;;;4.20;99.90;3.10;95762.00;;;;5097156;28;20434;-72
2021/03/14 09:02:20;;;;;;;8.20;2.97;;;4.20;99.90;3.20;95775.00;;;;5098112;28;20857;-72
2021/03/14 09:05:13;;;;;;;5.37;3.37;;;4.20;99.90;3.10;95778.00;;;;5091624;28;20511;-72
2021/03/14 09:08:03;;;;;;;3.27;3.00;;;4.20;99.90;3.20;95775.00;;;;5093602;28;20460;-72
2021/03/14 09:10:51;;;;;;;4.23;2.60;;;4.20;99.90;3.20;95773.00;;;;5090298;28;20444;-72
2021/03/14 09:13:39;;;;;;;7.73;4.53;;;4.20;99.90;3.20;95780.00;;;;5102714;28;21075;-72
2021/03/14 09:16:43;;;;;;;5.73;4.03;;;4.20;99.90;3.30;95794.00;;;;5081837;28;20430;-72
2021/03/14 09:19:40;;;;;;;6.40;4.90;;;4.20;99.90;3.40;95795.00;;;;5080485;28;20827;-72
2021/03/14 09:22:31;;;;;;;2.50;2.03;;;4.30;99.90;3.30;95809.00;;;;5071444;28;20446;-72
2021/03/14 09:25:20;;;;;;;2.20;1.70;;;4.30;99.90;3.40;95802.00;;;;5065887;28;20441;-72
2021/03/14 09:28:08;;;;;;;4.23;2.40;;;4.30;99.90;3.30;95805.00;;;;5064896;28;20466;-72
2021/03/14 09:30:55;;;;;;;2.30;2.10;;;4.30;99.90;3.40;95819.00;;;;5065288;28;20949;-72
2021/03/14 09:33:44;;;;;;;5.30;2.20;;;4.30;99.90;3.40;95810.00;;;;5073586;28;20433;-72
2021/03/14 09:36:32;;;;;;;3.43;2.97;;;4.40;99.90;3.50;95803.00;;;;5074745;28;20438;-72
2021/03/14 09:39:24;;;;;;;4.57;2.57;;;4.40;99.90;3.50;95816.00;;;;5066453;28;20441;-73
2021/03/14 09:42:21;;;;;;;6.17;4.00;;;4.50;99.90;3.40;95819.00;;;;5075046;28;20440;-72
2021/03/14 09:45:13;;;;;;;12.73;6.20;;;4.40;99.90;3.50;95811.00;;;;5085028;28;20434;-72
2021/03/14 09:48:15;;;;;;;5.37;3.03;;;4.50;99.90;3.50;95812.00;;;;5084365;28;20449;-72
2021/03/14 09:51:07;;;;;;;4.67;3.30;;;4.50;99.90;3.50;95809.00;;;;5086323;28;20995;-72
2021/03/14 09:53:55;;;;;;;41.80;19.77;;;4.50;99.90;3.40;95826.00;;;;5104949;28;20561;-73
2021/03/14 09:56:50;;;;;;;93.00;42.13;;;5.10;99.90;3.30;95820.00;;;;5073832;28;20462;-73
2021/03/14 09:59:38;;;;;;;46.13;20.23;;;4.50;99.90;3.30;95842.00;;;;5086276;28;20435;-73
2021/03/14 10:02:27;;;;;;;20.63;12.17;;;4.50;99.90;3.30;95850.00;;;;5078286;28;20437;-73
2021/03/14 10:05:15;;;;;;;25.63;13.10;;;4.40;99.90;3.40;95850.00;;;;5081870;28;20437;-73
2021/03/14 10:08:08;;;;;;;13.67;7.93;;;4.40;99.90;3.50;95852.00;;;;5076960;28;20469;-74
2021/03/14 10:10:59;;;;;;;4.63;3.50;;;6.80;99.90;3.50;95869.00;;;;5072465;28;20429;-73
2021/03/14 10:13:48;;;;;;;3.30;2.57;;;4.50;99.90;3.60;95886.00;;;;5075679;28;20446;-73
2021/03/14 10:16:39;;;;;;;2.53;2.30;;;4.50;99.90;3.80;95895.00;;;;5064764;28;20481;-73
2021/03/14 10:19:27;;;;;;;3.77;2.93;;;4.60;99.90;3.80;95894.00;;;;5081732;28;20578;-73
2021/03/14 10:22:29;;;;;;;2.83;2.17;;;4.70;99.90;3.80;95892.00;;;;5083222;28;20932;-73
2021/03/14 10:25:27;;;;;;;2.87;2.57;;;4.70;99.90;3.90;95891.00;;;;5078179;28;20436;-73
2021/03/14 10:28:18;;;;;;;2.63;2.43;;;4.70;99.90;4.00;95890.00;;;;5077285;28;20462;-73
2021/03/14 10:31:08;;;;;;;5.90;2.30;;;4.80;99.90;4.00;95898.00;;;;5078338;28;20944;-73
2021/03/14 10:34:02;;;;;;;3.10;2.10;;;4.90;99.90;3.90;95895.00;;;;5078306;28;20453;-73
2021/03/14 10:36:52;;;;;;;2.50;2.30;;;4.90;99.90;4.00;95898.00;;;;5083653;28;20450;-73
2021/03/14 10:39:40;;;;;;;3.13;2.57;;;4.90;99.90;4.00;95898.00;;;;5078024;28;20429;-74
2021/03/14 10:42:34;;;;;;;2.40;2.20;;;5.00;99.90;4.10;95902.00;;;;5084483;28;20432;-73
2021/03/14 10:45:25;;;;;;;4.00;2.30;;;5.00;99.90;4.10;95909.00;;;;5074682;28;20897;-73
2021/03/14 10:48:13;;;;;;;3.07;2.63;;;5.10;99.90;4.10;95920.00;;;;5082728;28;20453;-73
2021/03/14 10:51:03;;;;;;;3.90;3.33;;;5.10;99.90;4.10;95921.00;;;;5082120;28;20414;-73
2021/03/14 10:54:04;;;;;;;3.67;3.33;;;5.10;99.90;4.10;95918.00;;;;5083665;28;20426;-73
2021/03/14 10:56:52;;;;;;;3.00;2.70;;;5.10;99.90;4.20;95924.00;;;;5075461;28;20464;-73
2021/03/14 10:59:41;;;;;;;3.57;2.10;;;5.10;99.90;4.10;95919.00;;;;5079813;28;20425;-73
2021/03/14 11:02:34;;;;;;;4.17;2.00;;;5.10;99.90;4.10;95936.00;;;;5081656;28;20580;-73
2021/03/14 11:05:22;;;;;;;3.23;2.23;;;5.10;99.90;4.10;95924.00;;;;5081795;28;20203;-73
2021/03/14 11:08:10;;;;;;;2.70;2.03;;;5.10;99.90;4.20;95932.00;;;;5082378;28;20446;-73
2021/03/14 11:10:58;;;;;;;3.87;2.57;;;5.10;99.90;4.20;95919.00;;;;5081926;28;20453;-72
2021/03/14 11:13:48;;;;;;;5.43;3.37;;;5.10;99.90;4.30;95905.00;;;;5081936;28;20199;-73
2021/03/14 11:16:36;;;;;;;3.87;3.03;;;5.20;99.90;4.30;95889.00;;;;5079183;28;20588;-73
2021/03/14 11:19:24;;;;;;;8.20;5.10;;;5.20;99.90;4.40;95881.00;;;;5081274;28;20425;-73
2021/03/14 11:22:14;;;;;;;14.40;7.30;;;5.30;99.90;4.60;95893.00;;;;5081596;28;20434;-72
2021/03/14 11:25:05;;;;;;;6.60;3.93;;;5.40;99.90;4.50;95901.00;;;;5083604;28;20195;-73
2021/03/14 11:27:54;;;;;;;6.20;4.17;;;4.80;99.90;4.40;95906.00;;;;5082785;28;20219;-73
2021/03/14 11:30:42;;;;;;;5.10;3.60;;;5.40;99.90;4.60;95913.00;;;;5067091;28;20226;-73
2021/03/14 11:33:31;;;;;;;8.20;7.07;;;5.50;99.90;4.60;95896.00;;;;5084807;28;20678;-72
2021/03/14 11:36:20;;;;;;;3.33;3.03;;;5.50;99.90;4.50;95894.00;;;;5084636;28;20199;-73
2021/03/14 11:39:08;;;;;;;3.50;3.00;;;5.50;99.90;4.60;95911.00;;;;5084032;28;20667;-73
2021/03/14 11:41:56;;;;;;;4.80;3.13;;;5.60;99.90;4.80;95922.00;;;;5066487;28;20207;-72
2021/03/14 11:44:44;;;;;;;5.07;3.77;;;5.60;99.90;5.20;95927.00;;;;5073658;28;20207;-73
2021/03/14 11:47:32;;;;;;;3.33;2.07;;;5.70;99.90;5.20;95920.00;;;;5064199;28;20253;-72
2021/03/14 11:50:21;;;;;;;3.47;2.87;;;5.90;99.90;5.10;95920.00;;;;5083414;28;20614;-73
2021/03/14 11:53:09;;;;;;;3.77;3.23;;;6.00;99.90;5.10;95929.00;;;;5085135;28;20203;-72
2021/03/14 11:55:57;;;;;;;2.73;2.53;;;6.00;99.90;5.20;95916.00;;;;5101085;28;20198;-72
2021/03/14 11:58:45;;;;;;;3.87;3.43;;;6.00;99.90;5.40;95917.00;;;;5106152;28;20210;-73
2021/03/14 12:01:33;;;;;;;6.13;3.87;;;6.10;99.90;5.50;95909.00;;;;5107011;28;20210;-73
2021/03/14 12:04:22;;;;;;;7.30;4.47;;;5.80;99.90;5.70;95897.00;;;;5087829;28;20230;-73
2021/03/14 12:07:11;;;;;;;7.00;5.17;;;6.30;99.90;5.80;95897.00;;;;5086545;28;20223;-73
2021/03/14 12:09:59;;;;;;;6.57;5.20;;;6.50;99.90;6.10;95892.00;;;;5087302;28;20219;-73
2021/03/14 12:12:46;;;;;;;5.67;4.03;;;6.60;99.90;6.10;95878.00;;;;5099311;28;20211;-72
2021/03/14 12:15:34;;;;;;;4.80;3.60;;;6.80;99.90;6.10;95890.00;;;;5106163;27;20207;-72
2021/03/14 12:18:22;;;;;;;6.37;3.73;;;6.80;99.90;6.20;95903.00;;;;5099707;28;20628;-73
2021/03/14 12:21:11;;;;;;;4.40;3.50;;;6.90;99.90;6.20;95901.00;;;;5097474;28;20268;-72
2021/03/14 12:24:00;;;;;;;5.00;4.10;;;6.30;99.90;6.20;95888.00;;;;5087284;28;20603;-72
2021/03/14 12:26:48;;;;;;;6.53;3.77;;;7.00;99.90;6.20;95885.00;;;;5086677;28;20235;-72
2021/03/14 12:29:36;;;;;;;7.73;5.57;;;7.00;99.90;6.20;95901.00;;;;5085803;28;20227;-73
2021/03/14 12:32:23;;;;;;;9.60;5.60;;;7.10;99.90;6.00;95893.00;;;;5086945;28;20222;-72
2021/03/14 12:35:12;;;;;;;15.80;9.93;;;7.10;99.90;6.10;95891.00;;;;5087157;28;20740;-71
2021/03/14 12:38:00;;;;;;;6.70;4.67;;;7.00;99.90;6.00;95869.00;;;;5087209;28;20234;-72
2021/03/14 12:40:49;;;;;;;10.77;7.07;;;6.90;99.90;6.00;95867.00;;;;5087763;28;20681;-72
2021/03/14 12:43:39;;;;;;;9.03;4.83;;;6.90;99.90;6.00;95874.00;;;;5091075;28;20213;-72
2021/03/14 12:46:27;;;;;;;7.17;3.83;;;6.90;99.90;5.90;95879.00;;;;5102926;28;20211;-71
2021/03/14 12:49:15;;;;;;;3.43;3.13;;;6.90;99.90;5.60;95879.00;;;;5100232;28;20243;-73
2021/03/14 12:52:03;;;;;;;6.27;3.87;;;6.80;99.90;5.70;95881.00;;;;5097088;28;20883;-71